Time;durP1;ratioP1;P1;durP2;ratioP2;P2;SDS_P1;SDS_P2;PMS_P1;PMS_P2;Temp;Humidity;BMP_temperature;BMP_pressure;BME280_temperature;BME280_humidity;BME280_pressure;Samples;Min_cycle;Max_cycle;Signal;HPM_P1;HPM_P2
2022/10/12 00:02:24;;;;;;;;;;;;;;;14.75;76.54;101375.41;5077604;28;20387;-77
2022/10/12 00:05:08;;;;;;;;;;;;;;;14.62;77.07;101368.19;5076421;28;19917;-78
2022/10/12 00:07:53;;;;;;;;;;;;;;;14.63;77.43;101375.28;5080832;28;19916;-77
2022/10/12 00:10:42;;;;;;;;;;;;;;;14.64;77.41;101374.13;5061626;28;19917;-79
2022/10/12 00:13:27;;;;;;;;;;;;;;;14.58;77.71;101368.03;5056302;28;20309;-77
2022/10/12 00:16:13;;;;;;;;;;;;;;;14.62;77.73;101370.94;5054398;28;20307;-77
2022/10/12 00:18:58;;;;;;;;;;;;;;;14.48;77.80;101371.91;5055060;28;19917;-76
2022/10/12 00:21:42;;;;;;;;;;;;;;;14.58;77.55;101375.47;5071164;28;19917;-78
2022/10/12 00:24:27;;;;;;;;;;;;;;;14.52;77.81;101369.34;5079155;28;19917;-76
2022/10/12 00:27:11;;;;;;;;;;;;;;;14.62;77.25;101382.69;5074578;28;19921;-76
2022/10/12 00:29:55;;;;;;;;;;;;;;;14.52;77.42;101372.91;5071700;28;19916;-78
2022/10/12 00:32:40;;;;;;;;;;;;;;;14.43;77.81;101372.09;5053379;28;19917;-79
2022/10/12 00:35:27;;;;;;;;;;;;;;;14.44;77.88;101372.88;5058103;28;20379;-77
2022/10/12 00:38:11;;;;;;;;;;;;;;;14.47;77.89;101380.47;5070107;28;19920;-78
2022/10/12 00:40:56;;;;;;;;;;;;;;;14.54;77.78;101376.09;5078914;28;19916;-77
2022/10/12 00:43:41;;;;;;;;;;;;;;;14.51;77.51;101371.28;5086537;28;19916;-76
2022/10/12 00:46:31;;;;;;;;;;;;;;;14.57;76.79;101369.19;5080524;28;20383;-76
2022/10/12 00:49:18;;;;;;;;;;;;;;;14.65;76.52;101370.28;5078685;28;19921;-76
2022/10/12 00:52:05;;;;;;;;;;;;;;;14.42;77.32;101366.97;5079550;28;19916;-77
2022/10/12 00:54:50;;;;;;;;;;;;;;;14.33;77.80;101368.84;5069437;28;19920;-77
2022/10/12 00:57:35;;;;;;;;;;;;;;;14.35;78.21;101364.69;5070486;28;19932;-76
2022/10/12 01:00:20;;;;;;;;;;;;;;;14.43;77.84;101365.81;5084402;28;19916;-75
2022/10/12 01:03:06;;;;;;;;;;;;;;;14.42;77.88;101367.75;5073291;28;19921;-77
2022/10/12 01:05:51;;;;;;;;;;;;;;;14.35;77.82;101367.41;5085847;28;20570;-77
2022/10/12 01:08:36;;;;;;;;;;;;;;;14.38;77.72;101366.78;5097258;28;19916;-74
2022/10/12 01:11:21;;;;;;;;;;;;;;;14.32;77.63;101368.06;5083440;28;20395;-75
2022/10/12 01:14:05;;;;;;;;;;;;;;;14.38;78.12;101372.25;5083411;28;19916;-74
2022/10/12 01:16:50;;;;;;;;;;;;;;;14.36;77.42;101369.06;5086810;28;19916;-77
2022/10/12 01:19:34;;;;;;;;;;;;;;;14.47;77.16;101364.03;5095203;28;20387;-77
2022/10/12 01:22:20;;;;;;;;;;;;;;;14.45;76.67;101363.56;5076555;28;20311;-77
2022/10/12 01:25:18;;;;;;;;;;;;;;;14.30;77.35;101364.84;5073282;28;19916;-76
2022/10/12 01:28:27;;;;;;;;;;;;;;;14.35;77.27;101361.94;5073470;28;19917;-76
2022/10/12 01:31:24;;;;;;;;;;;;;;;14.34;77.14;101365.78;5077735;28;19924;-76
2022/10/12 01:34:16;;;;;;;;;;;;;;;14.33;76.87;101358.72;5055309;28;19925;-76
2022/10/12 01:37:10;;;;;;;;;;;;;;;14.33;76.93;101361.44;5072816;28;20338;-77
2022/10/12 01:39:56;;;;;;;;;;;;;;;14.19;77.58;101355.34;5076851;28;19916;-77
2022/10/12 01:42:40;;;;;;;;;;;;;;;14.20;77.34;101362.44;5073501;28;19917;-77
2022/10/12 01:45:25;;;;;;;;;;;;;;;14.29;77.19;101356.94;5072508;28;19916;-77
2022/10/12 01:48:10;;;;;;;;;;;;;;;14.24;76.88;101366.13;5077235;28;19916;-76
2022/10/12 01:50:56;;;;;;;;;;;;;;;14.20;77.22;101359.72;5075034;28;19916;-76
2022/10/12 01:53:51;;;;;;;;;;;;;;;14.32;76.82;101365.34;5063167;28;20720;-78
2022/10/12 01:56:36;;;;;;;;;;;;;;;14.40;76.50;101369.19;5099619;28;19943;-78
2022/10/12 01:59:26;;;;;;;;;;;;;;;14.39;76.23;101364.84;5055795;28;19917;-78
2022/10/12 02:02:11;;;;;;;;;;;;;;;14.30;76.60;101370.31;5054153;28;19917;-78
2022/10/12 02:04:58;;;;;;;;;;;;;;;14.34;76.21;101371.28;5073791;28;19916;-77
2022/10/12 02:07:49;;;;;;;;;;;;;;;14.35;76.28;101367.41;5072894;28;20376;-76
2022/10/12 02:10:57;;;;;;;;;;;;;;;14.34;76.42;101376.75;5073163;28;19916;-76
2022/10/12 02:13:43;;;;;;;;;;;;;;;14.20;76.94;101370.66;5067094;28;20304;-76
2022/10/12 02:16:32;;;;;;;;;;;;;;;14.24;76.69;101374.34;5053360;28;20387;-76
2022/10/12 02:19:20;;;;;;;;;;;;;;;14.16;76.88;101369.69;5051997;28;19917;-75
2022/10/12 02:22:06;;;;;;;;;;;;;;;14.07;77.27;101363.41;5057787;28;19917;-78
2022/10/12 02:24:52;;;;;;;;;;;;;;;13.93;77.88;101365.50;5066819;28;19916;-79
2022/10/12 02:27:39;;;;;;;;;;;;;;;13.98;77.74;101357.13;5074088;28;19917;-77
2022/10/12 02:30:24;;;;;;;;;;;;;;;13.85;78.23;101355.38;5077211;28;19917;-79
2022/10/12 02:33:13;;;;;;;;;;;;;;;13.78;78.47;101352.31;5074364;28;19920;-76
2022/10/12 02:36:01;;;;;;;;;;;;;;;13.66;78.89;101344.75;5059879;28;19921;-79
2022/10/12 02:38:50;;;;;;;;;;;;;;;13.71;78.72;101352.81;5055885;28;20300;-77
2022/10/12 02:41:37;;;;;;;;;;;;;;;13.66;79.06;101350.22;5054111;28;19917;-79
2022/10/12 02:44:24;;;;;;;;;;;;;;;13.69;78.31;101347.66;5059145;28;20307;-77
2022/10/12 02:47:10;;;;;;;;;;;;;;;13.59;78.85;101339.75;5073567;28;19917;-76
2022/10/12 02:49:56;;;;;;;;;;;;;;;13.67;78.53;101344.44;5073424;28;19917;-78
2022/10/12 02:52:40;;;;;;;;;;;;;;;13.84;77.71;101351.84;5077565;28;19916;-80
2022/10/12 02:55:25;;;;;;;;;;;;;;;13.69;77.67;101350.38;5069947;28;19921;-78
2022/10/12 02:58:09;;;;;;;;;;;;;;;13.66;78.11;101345.53;5056876;28;19921;-81
2022/10/12 03:00:54;;;;;;;;;;;;;;;13.66;78.58;101345.53;5063668;28;19917;-77
2022/10/12 03:03:39;;;;;;;;;;;;;;;13.75;78.10;101350.22;5078644;28;19916;-77
2022/10/12 03:06:23;;;;;;;;;;;;;;;13.65;78.09;101348.63;5063518;28;20445;-79
2022/10/12 03:09:08;;;;;;;;;;;;;;;13.63;78.28;101356.31;5075834;28;20407;-75
2022/10/12 03:11:53;;;;;;;;;;;;;;;13.64;78.04;101344.28;5066786;28;19917;-75
2022/10/12 03:14:37;;;;;;;;;;;;;;;13.72;77.58;101343.47;5081294;28;19917;-77
2022/10/12 03:17:21;;;;;;;;;;;;;;;13.72;77.63;101351.66;5077014;28;19920;-78
2022/10/12 03:20:06;;;;;;;;;;;;;;;13.70;77.28;101338.34;5081284;28;19917;-77
2022/10/12 03:22:51;;;;;;;;;;;;;;;13.66;77.65;101342.81;5083030;28;20307;-78
2022/10/12 03:25:36;;;;;;;;;;;;;;;13.70;77.44;101340.25;5082523;28;19917;-77
2022/10/12 03:28:22;;;;;;;;;;;;;;;13.82;77.21;101345.06;5076021;28;19920;-77
2022/10/12 03:31:06;;;;;;;;;;;;;;;13.71;77.55;101334.44;5069614;28;20307;-76
2022/10/12 03:33:51;;;;;;;;;;;;;;;13.71;77.09;101341.88;5067815;28;19916;-78
2022/10/12 03:36:36;;;;;;;;;;;;;;;13.57;77.62;101347.47;5067611;28;19924;-76
2022/10/12 03:39:20;;;;;;;;;;;;;;;13.65;77.00;101343.97;5065273;28;19916;-77
2022/10/12 03:42:05;;;;;;;;;;;;;;;13.64;77.12;101347.81;5083305;28;20383;-76
2022/10/12 03:44:49;;;;;;;;;;;;;;;13.47;77.48;101342.31;5075058;28;20298;-78
2022/10/12 03:47:33;;;;;;;;;;;;;;;13.60;77.37;101340.56;5074836;28;20387;-77
2022/10/12 03:50:18;;;;;;;;;;;;;;;13.59;76.90;101347.97;5074604;28;20315;-76
2022/10/12 03:53:03;;;;;;;;;;;;;;;13.47;77.95;101345.03;5068289;28;19916;-77
2022/10/12 03:55:48;;;;;;;;;;;;;;;13.45;78.02;101341.84;5074949;28;20388;-76
2022/10/12 03:58:33;;;;;;;;;;;;;;;13.50;77.69;101347.16;5079313;28;19920;-76
2022/10/12 04:01:17;;;;;;;;;;;;;;;13.59;76.80;101347.16;5079176;28;19916;-76
2022/10/12 04:04:02;;;;;;;;;;;;;;;13.46;77.92;101340.69;5089377;28;20387;-76
2022/10/12 04:06:46;;;;;;;;;;;;;;;13.43;77.80;101341.34;5095985;28;19916;-76
2022/10/12 04:09:31;;;;;;;;;;;;;;;13.40;78.01;101342.00;5095000;28;20455;-76
2022/10/12 04:12:15;;;;;;;;;;;;;;;13.46;77.36;101342.66;5097712;28;19916;-77
2022/10/12 04:15:00;;;;;;;;;;;;;;;13.45;77.48;101339.13;5096513;28;19920;-77
2022/10/12 04:17:44;;;;;;;;;;;;;;;13.40;77.20;101342.00;5088938;28;19916;-76
2022/10/12 04:20:28;;;;;;;;;;;;;;;13.33;77.74;101338.09;5074912;28;19916;-76
2022/10/12 04:23:13;;;;;;;;;;;;;;;13.47;77.34;101333.31;5065113;28;19916;-75
2022/10/12 04:25:57;;;;;;;;;;;;;;;13.50;76.83;101338.16;5090856;23;19916;-77
2022/10/12 04:28:42;;;;;;;;;;;;;;;13.46;77.18;101339.91;5084735;28;19924;-76
2022/10/12 04:31:26;;;;;;;;;;;;;;;13.40;77.52;101335.72;5086222;28;19916;-77
2022/10/12 04:34:11;;;;;;;;;;;;;;;13.44;77.37;101342.97;5091055;28;19916;-77
2022/10/12 04:36:55;;;;;;;;;;;;;;;13.44;76.77;101342.16;5076154;28;20388;-76
2022/10/12 04:39:39;;;;;;;;;;;;;;;13.30;77.95;101342.28;5077813;28;19921;-76
2022/10/12 04:42:25;;;;;;;;;;;;;;;13.30;77.91;101342.28;5084728;28;19916;-77
2022/10/12 04:45:09;;;;;;;;;;;;;;;13.33;78.13;101346.31;5074344;28;19917;-78
2022/10/12 04:47:54;;;;;;;;;;;;;;;13.38;77.50;101349.69;5079711;28;20379;-78
2022/10/12 04:50:38;;;;;;;;;;;;;;;13.42;76.99;101347.94;5073364;28;19917;-79
2022/10/12 04:53:22;;;;;;;;;;;;;;;13.37;77.59;101339.06;5068303;28;19916;-77
2022/10/12 04:56:07;;;;;;;;;;;;;;;13.34;78.09;101345.19;5069806;28;19921;-78
2022/10/12 04:58:51;;;;;;;;;;;;;;;13.55;76.12;101348.94;5087501;28;19915;-78
2022/10/12 05:01:36;;;;;;;;;;;;;;;13.52;76.40;101349.53;5079662;28;19916;-77
2022/10/12 05:04:20;;;;;;;;;;;;;;;13.59;76.13;101353.44;5069211;28;19917;-76
2022/10/12 05:07:05;;;;;;;;;;;;;;;13.57;76.14;101347.47;5081557;28;19920;-76
2022/10/12 05:09:49;;;;;;;;;;;;;;;13.63;76.32;101350.84;5072508;28;19916;-75
2022/10/12 05:12:33;;;;;;;;;;;;;;;13.62;76.19;101354.69;5080987;28;19920;-76
2022/10/12 05:15:18;;;;;;;;;;;;;;;13.74;74.88;101352.16;5080879;28;19920;-76
2022/10/12 05:18:02;;;;;;;;;;;;;;;13.55;75.74;101355.19;5086051;28;19916;-76
2022/10/12 05:20:46;;;;;;;;;;;;;;;13.49;76.89;101358.41;5079882;28;20296;-77
2022/10/12 05:23:31;;;;;;;;;;;;;;;13.50;76.10;101358.09;5074938;28;19920;-74
2022/10/12 05:26:15;;;;;;;;;;;;;;;13.65;75.44;101359.53;5078612;28;20394;-75
2022/10/12 05:29:00;;;;;;;;;;;;;;;13.41;77.07;101361.94;5075425;28;19917;-75
2022/10/12 05:31:44;;;;;;;;;;;;;;;13.57;75.74;101363.06;5077870;28;19917;-76
2022/10/12 05:34:28;;;;;;;;;;;;;;;13.47;76.37;101366.09;5063514;28;19916;-76
2022/10/12 05:37:13;;;;;;;;;;;;;;;13.63;75.29;101356.31;5071809;28;19921;-76
2022/10/12 05:39:57;;;;;;;;;;;;;;;13.72;74.99;101362.59;5075796;28;19917;-76
2022/10/12 05:42:43;;;;;;;;;;;;;;;13.73;74.85;101360.66;5080875;28;19916;-75
2022/10/12 05:45:27;;;;;;;;;;;;;;;13.75;75.03;101364.69;5080302;28;19920;-76
2022/10/12 05:48:12;;;;;;;;;;;;;;;13.83;74.71;101368.56;5085688;28;19916;-76
2022/10/12 05:50:56;;;;;;;;;;;;;;;13.98;74.07;101370.81;5089059;28;20371;-75
2022/10/12 05:53:41;;;;;;;;;;;;;;;13.92;74.99;101369.34;5072039;28;19916;-76
2022/10/12 05:56:26;;;;;;;;;;;;;;;14.23;73.53;101378.19;5076900;28;20395;-77
2022/10/12 05:59:10;;;;;;;;;;;;;;;14.28;72.92;101378.03;5084764;28;19916;-75
2022/10/12 06:01:54;;;;;;;;;;;;;;;14.46;72.44;101390.59;5075820;28;19920;-76
2022/10/12 06:04:39;;;;;;;;;;;;;;;14.42;72.56;101386.13;5083071;28;20386;-75
2022/10/12 06:07:23;;;;;;;;;;;;;;;15.11;70.18;101392.19;5076331;28;19917;-76
2022/10/12 06:10:08;;;;;;;;;;;;;;;15.00;70.33;101393.66;5091812;28;20291;-76
2022/10/12 06:12:53;;;;;;;;;;;;;;;14.97;69.94;101397.06;5092058;28;19916;-75
2022/10/12 06:15:37;;;;;;;;;;;;;;;14.74;71.23;101399.22;5074830;28;19920;-76
2022/10/12 06:18:21;;;;;;;;;;;;;;;14.94;70.48;101400.44;5065352;28;19916;-76
2022/10/12 06:21:06;;;;;;;;;;;;;;;14.74;71.58;101409.38;5076628;28;19916;-76
2022/10/12 06:23:50;;;;;;;;;;;;;;;14.94;70.51;101414.94;5083448;28;19916;-78
2022/10/12 06:26:34;;;;;;;;;;;;;;;14.98;70.42;101417.84;5069996;28;19920;-76
2022/10/12 06:29:22;;;;;;;;;;;;;;;15.25;69.59;101414.66;5085294;28;19916;-76
2022/10/12 06:32:07;;;;;;;;;;;;;;;15.24;69.96;101418.53;5078472;28;19917;-76
2022/10/12 06:34:51;;;;;;;;;;;;;;;15.20;69.89;101425.81;5078395;28;20312;-76
2022/10/12 06:37:35;;;;;;;;;;;;;;;15.38;69.77;101416.41;5073795;28;19921;-75
2022/10/12 06:40:20;;;;;;;;;;;;;;;15.49;69.37;101424.25;5078442;28;19917;-76
2022/10/12 06:43:07;;;;;;;;;;;;;;;15.87;68.14;101430.47;5072383;28;19920;-77
2022/10/12 06:45:51;;;;;;;;;;;;;;;15.72;68.25;101431.06;5071482;28;19921;-75
2022/10/12 06:48:36;;;;;;;;;;;;;;;16.18;67.28;101428.16;5076479;28;19921;-77
2022/10/12 06:51:20;;;;;;;;;;;;;;;16.55;66.00;101434.63;5069300;28;19916;-76
2022/10/12 06:54:04;;;;;;;;;;;;;;;16.51;66.68;101432.84;5071089;28;20399;-76
2022/10/12 06:56:49;;;;;;;;;;;;;;;16.97;65.26;101429.81;5071698;28;20296;-76
2022/10/12 06:59:33;;;;;;;;;;;;;;;17.40;63.81;101440.28;5077824;28;20303;-75
2022/10/12 07:02:18;;;;;;;;;;;;;;;17.51;64.08;101440.63;5061058;28;19920;-76
2022/10/12 07:05:03;;;;;;;;;;;;;;;17.17;64.45;101441.09;5063909;28;19916;-77
2022/10/12 07:07:47;;;;;;;;;;;;;;;17.60;63.64;101437.78;5065754;28;19916;-78
2022/10/12 07:10:32;;;;;;;;;;;;;;;17.92;62.80;101445.91;5063639;28;19924;-77
2022/10/12 07:13:17;;;;;;;;;;;;;;;17.89;62.47;101445.78;5069397;28;20309;-78
2022/10/12 07:16:01;;;;;;;;;;;;;;;17.57;63.98;101442.03;5058632;28;20316;-78
2022/10/12 07:18:46;;;;;;;;;;;;;;;17.48;65.03;101447.63;5059615;28;19917;-78
2022/10/12 07:21:30;;;;;;;;;;;;;;;17.58;64.08;101446.34;5071126;28;20403;-79
2022/10/12 07:24:14;;;;;;;;;;;;;;;18.28;62.48;101449.72;5072209;28;20287;-79
2022/10/12 07:26:59;;;;;;;;;;;;;;;18.41;61.69;101444.94;5077087;28;19916;-80
2022/10/12 07:29:43;;;;;;;;;;;;;;;18.42;61.76;101450.13;5065307;28;19917;-82
2022/10/12 07:32:28;;;;;;;;;;;;;;;18.72;62.12;101451.41;5067258;28;19917;-80
2022/10/12 07:35:13;;;;;;;;;;;;;;;18.94;60.71;101447.25;5074859;28;19916;-77
2022/10/12 07:37:57;;;;;;;;;;;;;;;19.21;59.42;101451.09;5074697;28;19916;-81
2022/10/12 07:40:42;;;;;;;;;;;;;;;19.12;59.18;101444.94;5058004;28;19917;-79
2022/10/12 07:43:27;;;;;;;;;;;;;;;19.20;58.92;101449.47;5068495;28;19917;-78
2022/10/12 07:46:11;;;;;;;;;;;;;;;19.13;59.08;101450.13;5066375;28;19917;-79
2022/10/12 07:48:56;;;;;;;;;;;;;;;19.12;59.82;101443.00;5072484;28;19917;-80
2022/10/12 07:51:41;;;;;;;;;;;;;;;19.10;59.92;101436.22;5069439;28;19925;-78
2022/10/12 07:54:25;;;;;;;;;;;;;;;19.29;59.49;101436.34;5076866;28;19916;-81
2022/10/12 07:57:09;;;;;;;;;;;;;;;19.34;59.10;101443.53;5063979;28;19924;-79
2022/10/12 07:59:54;;;;;;;;;;;;;;;19.30;59.24;101451.69;5069066;28;19917;-80
2022/10/12 08:02:38;;;;;;;;;;;;;;;19.42;58.94;101451.63;5074416;28;19916;-80
2022/10/12 08:05:24;;;;;;;;;;;;;;;19.76;57.70;101450.09;5080918;28;19920;-80
2022/10/12 08:08:08;;;;;;;;;;;;;;;19.83;56.93;101450.25;5090739;28;19916;-83
2022/10/12 08:10:53;;;;;;;;;;;;;;;19.57;57.71;101452.78;5080018;28;20375;-78
2022/10/12 08:13:38;;;;;;;;;;;;;;;19.79;56.81;101454.09;5080089;28;19916;-79
2022/10/12 08:16:22;;;;;;;;;;;;;;;20.16;54.70;101452.56;5063547;28;20379;-80
2022/10/12 08:19:07;;;;;;;;;;;;;;;20.36;53.97;101456.19;5090829;28;19916;-82
2022/10/12 08:21:52;;;;;;;;;;;;;;;19.92;55.37;101448.09;5070803;28;19916;-81
2022/10/12 08:24:36;;;;;;;;;;;;;;;19.79;55.62;101452.13;5087761;28;20305;-79
2022/10/12 08:27:20;;;;;;;;;;;;;;;20.20;54.25;101450.69;5056876;28;19917;-81
2022/10/12 08:30:05;;;;;;;;;;;;;;;20.34;52.49;101456.53;5060926;28;19920;-81
2022/10/12 08:32:50;;;;;;;;;;;;;;;20.38;53.38;101442.78;5058838;28;20112;-79
2022/10/12 08:35:36;;;;;;;;;;;;;;;20.30;53.11;101447.34;5057320;28;19917;-81
2022/10/12 08:38:21;;;;;;;;;;;;;;;20.41;52.75;101442.06;5056610;28;19917;-81
2022/10/12 08:41:12;;;;;;;;;;;;;;;19.93;53.36;101437.84;5059173;28;19920;-81
2022/10/12 08:44:03;;;;;;;;;;;;;;;19.74;53.01;101435.06;5056911;28;19917;-80
2022/10/12 08:46:48;;;;;;;;;;;;;;;19.67;54.30;101440.41;5056026;28;19916;-79
2022/10/12 08:49:33;;;;;;;;;;;;;;;19.98;53.82;101441.13;5056886;28;20160;-81
2022/10/12 08:52:33;;;;;;;;;;;;;;;20.21;52.78;101440.44;5055994;28;19917;-80
2022/10/12 08:55:24;;;;;;;;;;;;;;;20.36;51.82;101439.59;5056620;28;20380;-80
2022/10/12 08:58:19;;;;;;;;;;;;;;;20.36;51.95;101437.63;5071776;28;19921;-79
2022/10/12 09:01:07;;;;;;;;;;;;;;;20.34;52.21;101441.91;5075116;28;19920;-79
2022/10/12 09:03:54;;;;;;;;;;;;;;;20.86;50.91;101433.88;5068775;28;19917;-80
2022/10/12 09:06:44;;;;;;;;;;;;;;;20.84;49.29;101440.91;5067966;28;19916;-80
2022/10/12 09:09:47;;;;;;;;;;;;;;;20.96;47.53;101431.66;5093494;28;19916;-81
2022/10/12 09:12:31;;;;;;;;;;;;;;;20.84;46.86;101430.66;5098133;28;19916;-80
2022/10/12 09:15:27;;;;;;;;;;;;;;;20.85;47.45;101432.25;5095813;28;19916;-81
2022/10/12 09:18:15;;;;;;;;;;;;;;;20.95;45.88;101428.09;5095699;28;19920;-81
2022/10/12 09:21:01;;;;;;;;;;;;;;;21.07;45.29;101425.16;5095704;28;19916;-81
2022/10/12 09:23:46;;;;;;;;;;;;;;;21.45;45.19;101428.94;5095702;28;19920;-81
2022/10/12 09:26:35;;;;;;;;;;;;;;;21.64;45.61;101417.75;5099430;28;19924;-80
2022/10/12 09:29:28;;;;;;;;;;;;;;;21.78;44.25;101426.28;5097066;28;19916;-81
2022/10/12 09:32:28;;;;;;;;;;;;;;;22.28;43.38;101430.56;5095914;28;19916;-79
2022/10/12 09:35:13;;;;;;;;;;;;;;;22.49;43.02;101432.78;5095862;28;20296;-80
2022/10/12 09:37:59;;;;;;;;;;;;;;;21.91;43.98;101438.72;5094746;28;20398;-80
2022/10/12 09:40:43;;;;;;;;;;;;;;;22.28;43.31;101433.31;5095214;28;19916;-80
2022/10/12 09:43:28;;;;;;;;;;;;;;;22.20;43.30;101428.06;5098344;28;19916;-80
2022/10/12 09:46:14;;;;;;;;;;;;;;;22.70;42.32;101421.94;5095590;28;19920;-79
2022/10/12 09:48:59;;;;;;;;;;;;;;;22.53;41.81;101422.53;5095186;28;19920;-80
2022/10/12 09:51:43;;;;;;;;;;;;;;;22.72;40.53;101424.31;5098372;28;19916;-79
2022/10/12 09:54:28;;;;;;;;;;;;;;;22.50;40.83;101434.38;5097172;28;19916;-80
2022/10/12 09:57:24;;;;;;;;;;;;;;;23.00;40.64;101425.44;5094852;28;19920;-81
2022/10/12 10:00:26;;;;;;;;;;;;;;;22.53;40.85;101416.97;5098316;28;19917;-81
2022/10/12 10:03:22;;;;;;;;;;;;;;;22.17;40.02;101429.63;5094825;28;19916;-80
2022/10/12 10:06:07;;;;;;;;;;;;;;;22.52;41.63;101426.47;5094485;28;19916;-81
2022/10/12 10:08:51;;;;;;;;;;;;;;;22.66;41.62;101420.25;5094315;28;19915;-80
2022/10/12 10:11:35;;;;;;;;;;;;;;;22.73;41.50;101418.41;5094907;28;20391;-80
2022/10/12 10:14:20;;;;;;;;;;;;;;;23.06;41.22;101420.28;5098766;28;19916;-81
2022/10/12 10:17:04;;;;;;;;;;;;;;;22.98;40.67;101422.22;5097172;28;19924;-81
2022/10/12 10:19:50;;;;;;;;;;;;;;;23.02;40.67;101419.47;5094992;28;20375;-81
2022/10/12 10:22:34;;;;;;;;;;;;;;;22.94;39.53;101421.41;5095662;28;19916;-80
2022/10/12 10:25:21;;;;;;;;;;;;;;;23.29;38.85;101433.97;5095433;28;20441;-80
2022/10/12 10:28:21;;;;;;;;;;;;;;;22.95;39.49;101434.09;5079433;22;19925;-80
2022/10/12 10:31:06;;;;;;;;;;;;;;;22.89;38.35;101427.28;5051784;28;19924;-80
2022/10/12 10:34:08;;;;;;;;;;;;;;;22.71;39.61;101422.72;5053576;28;19917;-80
2022/10/12 10:36:55;;;;;;;;;;;;;;;23.44;38.31;101425.38;5050911;28;19925;-81
2022/10/12 10:39:45;;;;;;;;;;;;;;;23.32;38.16;101424.88;5054534;28;19917;-80
2022/10/12 10:42:31;;;;;;;;;;;;;;;23.31;37.75;101429.66;5067684;28;19921;-81
2022/10/12 10:45:24;;;;;;;;;;;;;;;23.44;37.16;101430.94;5056516;28;19921;-81
2022/10/12 10:48:10;;;;;;;;;;;;;;;23.56;36.64;101429.88;5065718;28;19921;-80
2022/10/12 10:50:59;;;;;;;;;;;;;;;24.10;36.03;101433.75;5040851;28;19917;-80
2022/10/12 10:53:48;;;;;;;;;;;;;;;24.04;36.62;101438.06;5054317;28;20307;-80
2022/10/12 10:56:32;;;;;;;;;;;;;;;23.88;36.62;101433.63;5068740;28;20402;-79
2022/10/12 10:59:32;;;;;;;;;;;;;;;23.85;36.08;101433.63;5061745;28;19916;-78
2022/10/12 11:02:41;;;;;;;;;;;;;;;23.94;36.61;101428.50;5058624;28;19917;-85
2022/10/12 11:05:28;;;;;;;;;;;;;;;23.90;35.97;101433.25;5044592;28;19917;-85
2022/10/12 11:08:21;;;;;;;;;;;;;;;24.14;35.72;101437.31;5037028;28;19921;-81
2022/10/12 11:11:10;;;;;;;;;;;;;;;23.91;35.38;101420.97;5045339;28;19920;-82
2022/10/12 11:14:06;;;;;;;;;;;;;;;24.59;34.72;101425.59;5047315;28;19916;-79
2022/10/12 11:17:01;;;;;;;;;;;;;;;24.35;34.97;101426.34;5058179;28;19921;-81
2022/10/12 11:19:47;;;;;;;;;;;;;;;24.66;34.61;101425.63;5061636;28;19917;-80
2022/10/12 11:22:40;;;;;;;;;;;;;;;24.55;34.58;101419.25;5056923;28;20395;-84
2022/10/12 11:25:29;;;;;;;;;;;;;;;24.69;35.15;101424.84;5054950;28;19916;-81
2022/10/12 11:28:17;;;;;;;;;;;;;;;25.74;32.88;101416.16;5048868;28;20312;-81
2022/10/12 11:31:03;;;;;;;;;;;;;;;25.33;32.32;101411.00;5049875;28;19917;-82
2022/10/12 11:33:48;;;;;;;;;;;;;;;26.01;31.65;101410.91;5042857;28;19921;-81
2022/10/12 11:36:36;;;;;;;;;;;;;;;26.89;30.67;101404.09;5054206;28;20584;-81
2022/10/12 11:39:33;;;;;;;;;;;;;;;27.59;30.47;101408.28;5055801;28;20364;-81
2022/10/12 11:42:26;;;;;;;;;;;;;;;27.39;29.65;101401.66;5059847;28;19916;-85
2022/10/12 11:45:28;;;;;;;;;;;;;;;29.68;25.85;101403.28;5046665;28;19917;-83
2022/10/12 11:48:16;;;;;;;;;;;;;;;33.61;21.64;101414.38;5068461;28;19916;-79
2022/10/12 11:51:00;;;;;;;;;;;;;;;36.16;18.41;101415.31;5056230;28;19917;-82
2022/10/12 11:53:48;;;;;;;;;;;;;;;35.91;18.11;101416.41;5054682;28;20526;-82
2022/10/12 11:56:46;;;;;;;;;;;;;;;34.35;18.85;101408.03;5057877;28;19921;-82
2022/10/12 11:59:37;;;;;;;;;;;;;;;33.87;20.00;101401.78;5054137;28;19916;-83
2022/10/12 12:02:27;;;;;;;;;;;;;;;33.93;20.31;101399.91;5053333;28;19921;-82
2022/10/12 12:05:13;;;;;;;;;;;;;;;39.94;14.53;101400.78;5054476;28;19916;-80
2022/10/12 12:07:58;;;;;;;;;;;;;;;40.39;14.18;101399.13;5046385;28;20436;-80
2022/10/12 12:10:43;;;;;;;;;;;;;;;34.29;19.28;101384.47;5047152;28;19916;-80
2022/10/12 12:13:28;;;;;;;;;;;;;;;34.26;20.00;101379.75;5054834;28;19917;-80
2022/10/12 12:16:12;;;;;;;;;;;;;;;37.33;16.85;101391.78;5064884;28;19916;-80
2022/10/12 12:19:06;;;;;;;;;;;;;;;37.24;16.77;101386.94;5050359;28;19921;-81
2022/10/12 12:22:09;;;;;;;;;;;;;;;37.31;16.91;101383.75;5058693;28;20383;-81
2022/10/12 12:25:12;;;;;;;;;;;;;;;38.57;15.78;101385.81;5050247;28;20300;-81
2022/10/12 12:28:04;;;;;;;;;;;;;;;39.61;14.65;101381.28;5049767;28;20099;-81
2022/10/12 12:30:56;;;;;;;;;;;;;;;37.80;15.95;101374.66;5062403;28;20056;-78
2022/10/12 12:33:44;;;;;;;;;;;;;;;35.96;18.27;101370.47;5046355;28;19917;-81
2022/10/12 12:36:57;;;;;;;;;;;;;;;40.58;14.81;101371.78;5036211;28;19929;-80
2022/10/12 12:39:42;;;;;;;;;;;;;;;42.29;12.83;101377.84;5032232;28;19917;-80
2022/10/12 12:42:31;;;;;;;;;;;;;;;37.04;16.10;101362.00;5036816;28;19917;-81
2022/10/12 12:45:35;;;;;;;;;;;;;;;37.30;16.04;101355.84;5034824;28;19917;-81
2022/10/12 12:48:38;;;;;;;;;;;;;;;36.33;16.76;101344.91;5032758;28;19917;-80
2022/10/12 12:51:35;;;;;;;;;;;;;;;36.24;17.23;101347.78;5035087;28;20308;-81
2022/10/12 12:54:21;;;;;;;;;;;;;;;35.46;17.96;101348.50;5032362;28;19917;-81
2022/10/12 12:57:18;;;;;;;;;;;;;;;36.25;17.00;101341.63;5036057;28;20387;-81
2022/10/12 13:00:05;;;;;;;;;;;;;;;36.46;17.70;101339.81;5033733;28;19917;-81
2022/10/12 13:02:53;;;;;;;;;;;;;;;36.17;17.79;101342.44;5033206;28;19917;-81
2022/10/12 13:05:49;;;;;;;;;;;;;;;35.91;17.50;101337.13;5035572;28;19939;-80
2022/10/12 13:08:52;;;;;;;;;;;;;;;35.76;17.72;101338.31;5033183;28;20727;-81
2022/10/12 13:11:46;;;;;;;;;;;;;;;36.74;16.76;101341.25;5033085;28;19917;-80
2022/10/12 13:14:34;;;;;;;;;;;;;;;36.84;16.81;101336.31;5033928;28;19917;-81
2022/10/12 13:17:37;;;;;;;;;;;;;;;37.31;16.79;101331.88;5039655;28;19924;-81
2022/10/12 13:20:25;;;;;;;;;;;;;;;33.69;19.38;101336.72;5055340;28;19917;-81
2022/10/12 13:23:12;;;;;;;;;;;;;;;32.08;21.82;101325.59;5043455;28;19928;-81
2022/10/12 13:26:02;;;;;;;;;;;;;;;32.08;21.80;101316.34;5052945;28;19917;-81
2022/10/12 13:28:48;;;;;;;;;;;;;;;33.40;20.16;101322.84;5046013;28;19921;-80
2022/10/12 13:31:38;;;;;;;;;;;;;;;33.71;20.41;101311.66;5064018;28;19917;-82
2022/10/12 13:34:27;;;;;;;;;;;;;;;31.65;22.74;101297.13;5048618;28;20398;-81
2022/10/12 13:37:13;;;;;;;;;;;;;;;33.23;20.93;101310.16;5051679;28;20383;-81
2022/10/12 13:39:58;;;;;;;;;;;;;;;30.88;23.50;101306.44;5051921;28;19929;-81
2022/10/12 13:42:42;;;;;;;;;;;;;;;30.84;24.35;101297.31;5056189;28;19916;-81
2022/10/12 13:45:27;;;;;;;;;;;;;;;30.68;23.96;101294.53;5054477;28;19917;-81
2022/10/12 13:48:17;;;;;;;;;;;;;;;32.91;21.96;101296.41;5052219;28;19916;-80
2022/10/12 13:51:02;;;;;;;;;;;;;;;31.04;23.67;101295.19;5052356;28;19917;-82
2022/10/12 13:53:47;;;;;;;;;;;;;;;32.88;21.81;101300.13;5052787;28;20307;-85
2022/10/12 13:56:31;;;;;;;;;;;;;;;33.85;20.54;101293.41;5051807;28;19917;-83
2022/10/12 13:59:18;;;;;;;;;;;;;;;35.64;18.43;101293.94;5040756;28;19925;-82
2022/10/12 14:02:15;;;;;;;;;;;;;;;35.91;18.22;101299.56;5050536;28;19917;-82
2022/10/12 14:05:01;;;;;;;;;;;;;;;36.40;17.83;101302.06;5040780;28;20392;-85
2022/10/12 14:07:48;;;;;;;;;;;;;;;35.09;19.20;101310.94;5056807;28;19917;-83
2022/10/12 14:10:34;;;;;;;;;;;;;;;34.72;18.79;101302.41;5053665;28;19917;-81
2022/10/12 14:13:24;;;;;;;;;;;;;;;33.02;21.10;101293.97;5051931;28;19917;-81
2022/10/12 14:16:10;;;;;;;;;;;;;;;34.53;19.58;101292.31;5050642;28;19920;-81
2022/10/12 14:18:54;;;;;;;;;;;;;;;30.50;24.31;101286.53;5053019;28;20311;-81